weather.gov     
National Weather Service

Terminal Aerodrome Forecast
NWS Homepage
This page is being discontinued on March 12, 2014.
The same data is available at this site. Please update your bookmarks.
Thank you, and we apologize for the inconvenience.
Please send an email to SR-SRH.Webmaster@noaa.gov with any concerns.


Current Version
Previous Version:    01  02  03  04  05  06  07  08  09  10  11  12  13  14  15  16  17  18  19  20  21  22  23  24  25  26  27  28  29  30  
   31  32  33  34  35  36  37  38  39  40  41  
[Printable]
042
FTUS46 KPQR 230533
TAFTTD
TAF
KTTD 230533Z 2306/2406 27005KT P6SM VCSH BKN050 OVC080
     FM231200 00000KT 2SM BR BKN008
     FM231500 23003KT P6SM SCT008 BKN050
     FM231800 32004KT 6SM -RA BKN050
     FM240400 00000KT P6SM OVC100=


042
FTUS46 KPQR 230533
TAFTTD
TAF
KTTD 230533Z 2306/2406 27005KT P6SM VCSH BKN050 OVC080
     FM231200 00000KT 2SM BR BKN008
     FM231500 23003KT P6SM SCT008 BKN050
     FM231800 32004KT 6SM -RA BKN050
     FM240400 00000KT P6SM OVC100=




U.S. Dept. of Commerce
NOAA National Weather Service
1325 East West Highway
Silver Spring, MD 20910
E-mail: w-nws.webmaster@noaa.gov
Page last modified: May 16, 2007
NATIONAL WEATHER SERVICE: for Safety, for Work, for Fun - FOR LIFE